createdAt,value
2023-02-27T00:01:14.317Z,102098.19
2023-02-27T00:03:41.536Z,102097.28
2023-02-27T00:06:08.830Z,102096.31
2023-02-27T00:08:36.210Z,102094.41
2023-02-27T00:11:03.511Z,102093.56
2023-02-27T00:13:30.925Z,102097.69
2023-02-27T00:15:58.212Z,102100.16
2023-02-27T00:18:25.460Z,102101.69
2023-02-27T00:20:52.695Z,102096.34
2023-02-27T00:23:19.949Z,102101.53
2023-02-27T00:25:49.826Z,102099.72
2023-02-27T00:28:17.164Z,102097.03
2023-02-27T00:30:44.447Z,102092.56
2023-02-27T00:33:11.711Z,102094.25
2023-02-27T00:35:38.961Z,102084.69
2023-02-27T00:38:06.586Z,102090.66
2023-02-27T00:40:36.089Z,102094.97
2023-02-27T00:43:04.358Z,102088.06
2023-02-27T00:45:31.622Z,102095.69
2023-02-27T00:47:58.871Z,102092.16
2023-02-27T00:50:26.156Z,102088.59
2023-02-27T00:52:54.043Z,102091.22
2023-02-27T00:55:21.326Z,102090.00
2023-02-27T00:57:48.650Z,102084.91
2023-02-27T01:00:16.398Z,102091.91
2023-02-27T01:02:43.675Z,102089.25
2023-02-27T01:05:11.218Z,102091.72
2023-02-27T01:07:38.584Z,102080.47
2023-02-27T01:10:07.337Z,102085.56
2023-02-27T01:12:34.673Z,102085.56
2023-02-27T01:15:01.982Z,102082.09
2023-02-27T01:17:29.208Z,102081.97
2023-02-27T01:19:56.542Z,102081.00
2023-02-27T01:22:24.572Z,102080.88
2023-02-27T01:24:51.930Z,102083.38
2023-02-27T01:27:19.371Z,102082.47
2023-02-27T01:29:46.622Z,102086.66
2023-02-27T01:32:14.128Z,102080.69
2023-02-27T01:34:41.421Z,102087.50
2023-02-27T01:37:08.870Z,102079.75
2023-02-27T01:39:37.117Z,102085.69
2023-02-27T01:42:04.382Z,102082.97
2023-02-27T01:44:34.351Z,102080.34
2023-02-27T01:47:01.589Z,102075.63
2023-02-27T01:49:32.243Z,102077.66
2023-02-27T01:52:03.321Z,102078.53
2023-02-27T01:54:32.520Z,102077.28
2023-02-27T01:57:22.675Z,102073.00
2023-02-27T01:59:50.008Z,102075.41
2023-02-27T02:02:26.701Z,102074.72
2023-02-27T02:04:55.283Z,102084.19
2023-02-27T02:07:22.712Z,102072.91
2023-02-27T02:09:54.119Z,102078.81
2023-02-27T02:12:35.093Z,102081.59
2023-02-27T02:15:03.285Z,102077.06
2023-02-27T02:17:35.566Z,102080.75
2023-02-27T02:20:27.572Z,102085.94
2023-02-27T02:23:32.365Z,102092.53
2023-02-27T02:26:44.354Z,102090.78
2023-02-27T02:29:33.508Z,102085.38
2023-02-27T02:32:05.906Z,102080.97
2023-02-27T02:35:19.697Z,102086.84
2023-02-27T02:38:05.844Z,102086.84
2023-02-27T02:40:35.996Z,102085.88
2023-02-27T02:43:15.499Z,102086.97
2023-02-27T02:46:02.002Z,102087.72
2023-02-27T02:48:34.810Z,102094.59
2023-02-27T02:51:10.319Z,102087.75
2023-02-27T02:54:09.710Z,102090.91
2023-02-27T02:56:54.100Z,102096.22
2023-02-27T02:59:41.845Z,102093.91
2023-02-27T03:02:16.442Z,102098.88
2023-02-27T03:04:53.917Z,102097.06
2023-02-27T03:07:26.294Z,102094.94
2023-02-27T03:10:14.892Z,102095.44
2023-02-27T03:12:45.223Z,102098.09
2023-02-27T03:15:18.947Z,102098.97
2023-02-27T03:18:07.610Z,102101.47
2023-02-27T03:20:49.125Z,102104.81
2023-02-27T03:23:28.077Z,102108.19
2023-02-27T03:25:58.447Z,102106.44
2023-02-27T03:28:29.744Z,102107.41
2023-02-27T03:31:02.152Z,102114.91
2023-02-27T03:33:33.896Z,102121.81
2023-02-27T03:36:01.160Z,102124.22
2023-02-27T03:39:08.008Z,102120.31
2023-02-27T03:41:36.702Z,102134.91
2023-02-27T03:44:19.578Z,102121.06
2023-02-27T03:46:46.814Z,102139.97
2023-02-27T03:49:16.293Z,102134.91
2023-02-27T03:51:51.023Z,102139.69
2023-02-27T03:54:27.408Z,102145.13
2023-02-27T03:57:09.069Z,102145.00
2023-02-27T03:59:38.979Z,102146.66
2023-02-27T04:02:06.636Z,102143.22
2023-02-27T04:04:35.694Z,102145.97
2023-02-27T04:07:22.501Z,102147.06
2023-02-27T04:10:23.690Z,102149.38
2023-02-27T04:13:18.363Z,102153.56
2023-02-27T04:16:01.038Z,102149.25
2023-02-27T04:19:00.095Z,102151.81
2023-02-27T04:21:58.623Z,102156.00
2023-02-27T04:24:34.746Z,102150.72
2023-02-27T04:27:24.520Z,102157.84
2023-02-27T04:30:06.596Z,102160.41
2023-02-27T04:32:45.080Z,102162.69
2023-02-27T04:35:36.238Z,102161.66
2023-02-27T04:38:30.353Z,102179.75
2023-02-27T04:41:03.326Z,102170.28
2023-02-27T04:43:32.000Z,102169.31
2023-02-27T04:46:03.211Z,102176.88
2023-02-27T04:48:35.687Z,102169.94
2023-02-27T04:51:12.630Z,102174.06
2023-02-27T04:53:49.013Z,102178.34
2023-02-27T04:56:27.902Z,102180.97
2023-02-27T04:59:11.710Z,102190.63
2023-02-27T05:01:41.986Z,102189.66
2023-02-27T05:04:12.246Z,102183.91
2023-02-27T05:06:43.729Z,102183.91
2023-02-27T05:09:38.731Z,102177.09
2023-02-27T05:12:11.980Z,102186.25
2023-02-27T05:14:48.215Z,102196.44
2023-02-27T05:17:32.054Z,102190.41
2023-02-27T05:20:01.587Z,102194.63
2023-02-27T05:23:05.926Z,102192.84
2023-02-27T05:25:47.149Z,102191.97
2023-02-27T05:28:25.785Z,102186.69
2023-02-27T05:31:00.855Z,102184.72
2023-02-27T05:33:36.692Z,102184.78
2023-02-27T05:36:18.074Z,102187.50
2023-02-27T05:42:15.735Z,102181.41
2023-02-27T05:44:57.444Z,102186.75
2023-02-27T05:47:27.792Z,102184.47
2023-02-27T05:49:59.837Z,102189.53
2023-02-27T05:52:31.512Z,102189.84
2023-02-27T05:55:19.292Z,102200.16
2023-02-27T05:57:55.983Z,102202.09
2023-02-27T06:00:40.591Z,102210.59
2023-02-27T06:03:10.784Z,102217.53
2023-02-27T06:05:39.559Z,102221.59
2023-02-27T06:08:16.194Z,102214.06
2023-02-27T06:10:43.449Z,102225.31
2023-02-27T06:13:14.344Z,102225.53
2023-02-27T06:15:41.642Z,102240.84
2023-02-27T06:18:11.158Z,102245.25
2023-02-27T06:20:41.359Z,102240.72
2023-02-27T06:23:09.255Z,102243.91
2023-02-27T06:25:36.628Z,102239.88
2023-02-27T06:28:04.570Z,102245.78
2023-02-27T06:30:31.965Z,102245.19
2023-02-27T06:33:04.000Z,102247.28
2023-02-27T06:35:31.345Z,102253.38
2023-02-27T06:37:58.697Z,102260.16
2023-02-27T06:40:26.345Z,102256.09
2023-02-27T06:42:53.830Z,102261.50
2023-02-27T06:45:21.093Z,102261.72
2023-02-27T06:47:48.366Z,102258.50
2023-02-27T06:50:16.011Z,102260.28
2023-02-27T06:52:43.236Z,102265.56
2023-02-27T06:55:11.047Z,102257.63
2023-02-27T06:57:38.428Z,102254.53
2023-02-27T07:00:11.820Z,102254.84
2023-02-27T07:02:39.311Z,102247.72
2023-02-27T07:05:08.204Z,102249.28
2023-02-27T07:07:37.875Z,102243.44
2023-02-27T07:10:11.272Z,102252.31
2023-02-27T07:12:39.117Z,102262.22
2023-02-27T07:15:07.204Z,102257.97
2023-02-27T07:17:34.551Z,102264.72
2023-02-27T07:20:01.957Z,102273.34
2023-02-27T07:22:29.620Z,102294.38
2023-02-27T07:24:56.877Z,102294.25
2023-02-27T07:27:24.497Z,102302.72
2023-02-27T07:29:53.101Z,102308.38
2023-02-27T07:32:20.684Z,102303.50
2023-02-27T07:34:48.127Z,102297.72
2023-02-27T07:37:15.463Z,102289.88
2023-02-27T07:39:42.770Z,102293.63
2023-02-27T07:42:10.478Z,102290.06
2023-02-27T07:44:46.313Z,102288.25
2023-02-27T07:47:13.743Z,102289.34
2023-02-27T07:49:40.979Z,102289.19
2023-02-27T07:52:08.415Z,102294.72
2023-02-27T07:54:37.666Z,102308.41
2023-02-27T07:57:05.053Z,102307.41
2023-02-27T07:59:32.346Z,102309.47
2023-02-27T08:01:59.672Z,102310.03
2023-02-27T08:04:28.289Z,102313.81
2023-02-27T08:06:55.583Z,102316.81
2023-02-27T08:09:23.981Z,102319.22
2023-02-27T08:11:52.512Z,102320.75
2023-02-27T08:14:20.610Z,102318.66
2023-02-27T08:16:48.025Z,102321.16
2023-02-27T08:19:15.504Z,102326.50
2023-02-27T08:21:43.055Z,102322.84
2023-02-27T08:24:10.691Z,102334.09
2023-02-27T08:26:38.130Z,102328.53
2023-02-27T08:29:05.354Z,102321.09
2023-02-27T08:31:33.023Z,102323.03
2023-02-27T08:34:09.929Z,102326.59
2023-02-27T08:36:38.497Z,102326.56
2023-02-27T08:39:07.052Z,102330.91
2023-02-27T08:41:35.056Z,102329.44
2023-02-27T08:44:02.813Z,102336.53
2023-02-27T08:46:30.243Z,102322.03
2023-02-27T08:48:59.587Z,102328.56
2023-02-27T08:51:27.576Z,102322.94
2023-02-27T08:53:58.806Z,102326.56
2023-02-27T08:56:27.995Z,102324.22
2023-02-27T08:58:56.052Z,102331.06
2023-02-27T09:01:23.916Z,102337.03
2023-02-27T09:03:52.454Z,102336.31
2023-02-27T09:06:19.948Z,102329.75
2023-02-27T09:08:47.227Z,102334.97
2023-02-27T09:11:14.450Z,102326.41
2023-02-27T09:13:41.750Z,102330.31
2023-02-27T09:16:09.136Z,102338.13
2023-02-27T09:18:36.431Z,102336.19
2023-02-27T09:21:03.725Z,102334.28
2023-02-27T09:23:30.934Z,102336.22
2023-02-27T09:25:58.452Z,102339.53
2023-02-27T09:28:25.716Z,102338.94
2023-02-27T09:30:53.011Z,102345.44
2023-02-27T09:33:20.255Z,102348.97
2023-02-27T09:35:47.615Z,102347.34
2023-02-27T09:38:15.065Z,102351.41
2023-02-27T09:40:43.464Z,102351.78
2023-02-27T09:43:22.721Z,102353.06
2023-02-27T09:45:54.353Z,102360.28
2023-02-27T09:48:30.332Z,102361.47
2023-02-27T09:50:58.367Z,102357.38
2023-02-27T09:53:39.551Z,102357.72
2023-02-27T09:56:35.864Z,102359.81
2023-02-27T09:59:05.916Z,102361.63
2023-02-27T10:01:43.986Z,102363.63
2023-02-27T10:04:39.211Z,102373.50
2023-02-27T10:07:28.288Z,102367.56
2023-02-27T10:10:23.331Z,102367.75
2023-02-27T10:13:15.503Z,102372.41
2023-02-27T10:15:50.520Z,102372.47
2023-02-27T10:18:30.471Z,102371.72
2023-02-27T10:21:07.235Z,102369.13
2023-02-27T10:23:51.418Z,102376.94
2023-02-27T10:26:24.220Z,102364.09
2023-02-27T10:28:51.443Z,102368.69
2023-02-27T10:31:25.665Z,102370.47
2023-02-27T10:33:53.292Z,102374.09
2023-02-27T10:36:33.041Z,102371.44
2023-02-27T10:39:14.134Z,102372.44
2023-02-27T10:41:41.533Z,102377.81
2023-02-27T10:44:10.514Z,102370.84
2023-02-27T10:46:40.889Z,102379.63
2023-02-27T10:49:18.292Z,102381.50
2023-02-27T10:52:07.443Z,102378.13
2023-02-27T10:54:35.578Z,102374.69
2023-02-27T10:57:05.386Z,102374.59
2023-02-27T10:59:34.570Z,102368.72
2023-02-27T11:02:20.827Z,102372.03
2023-02-27T11:04:53.884Z,102369.53
2023-02-27T11:07:38.704Z,102365.94
2023-02-27T11:10:15.207Z,102364.13
2023-02-27T11:13:02.927Z,102361.66
2023-02-27T11:15:36.124Z,102365.06
2023-02-27T11:18:27.378Z,102355.50
2023-02-27T11:21:09.400Z,102358.13
2023-02-27T11:23:36.960Z,102357.31
2023-02-27T11:26:23.209Z,102359.44
2023-02-27T11:29:18.304Z,102359.66
2023-02-27T11:31:54.521Z,102351.84
2023-02-27T11:34:28.735Z,102362.28
2023-02-27T11:37:05.985Z,102365.59
2023-02-27T11:39:49.220Z,102364.53
2023-02-27T11:42:20.744Z,102362.69
2023-02-27T11:44:56.873Z,102362.28
2023-02-27T11:47:27.934Z,102366.53
2023-02-27T11:50:20.244Z,102354.59
2023-02-27T11:53:20.408Z,102359.13
2023-02-27T11:55:48.138Z,102358.22
2023-02-27T11:58:22.098Z,102349.38
2023-02-27T12:00:53.002Z,102352.69
2023-02-27T12:03:25.510Z,102359.63
2023-02-27T12:05:59.085Z,102350.19
2023-02-27T12:08:46.150Z,102342.59
2023-02-27T12:11:23.998Z,102344.34
2023-02-27T12:14:04.860Z,102339.25
2023-02-27T12:16:46.768Z,102339.28
2023-02-27T12:19:26.632Z,102343.53
2023-02-27T12:21:58.371Z,102344.50
2023-02-27T12:24:40.859Z,102344.72
2023-02-27T12:27:19.896Z,102346.56
2023-02-27T12:30:05.931Z,102339.69
2023-02-27T12:32:42.430Z,102343.97
2023-02-27T12:35:22.779Z,102345.75
2023-02-27T12:37:52.951Z,102344.78
2023-02-27T12:40:22.807Z,102338.84
2023-02-27T12:43:02.112Z,102347.75
2023-02-27T12:45:41.688Z,102348.84
2023-02-27T12:48:41.139Z,102353.41
2023-02-27T12:51:35.714Z,102338.06
2023-02-27T12:54:29.785Z,102338.88
2023-02-27T12:57:19.094Z,102342.16
2023-02-27T12:59:53.459Z,102339.53
2023-02-27T13:02:35.660Z,102350.78
2023-02-27T13:05:33.793Z,102347.13
2023-02-27T13:08:23.794Z,102347.81
2023-02-27T13:11:36.450Z,102356.09
2023-02-27T13:14:38.335Z,102354.44
2023-02-27T13:17:18.898Z,102350.22
2023-02-27T13:20:14.608Z,102359.28
2023-02-27T13:23:07.872Z,102354.03
2023-02-27T13:25:39.416Z,102352.09
2023-02-27T13:28:12.364Z,102354.69
2023-02-27T13:30:59.730Z,102358.97
2023-02-27T13:33:51.767Z,102359.75
2023-02-27T13:36:27.611Z,102360.47
2023-02-27T13:38:56.251Z,102356.06
2023-02-27T13:41:29.451Z,102356.94
2023-02-27T13:43:57.553Z,102359.50
2023-02-27T13:46:28.537Z,102345.75
2023-02-27T13:49:05.311Z,102353.63
2023-02-27T13:51:35.603Z,102345.69
2023-02-27T13:54:19.176Z,102349.03
2023-02-27T13:57:01.138Z,102343.81
2023-02-27T13:59:34.751Z,102352.59
2023-02-27T14:02:09.851Z,102350.81
2023-02-27T14:04:50.061Z,102356.09
2023-02-27T14:07:21.599Z,102352.66
2023-02-27T14:09:51.912Z,102344.00
2023-02-27T14:12:44.331Z,102345.66
2023-02-27T14:15:18.269Z,102357.00
2023-02-27T14:17:49.522Z,102356.03
2023-02-27T14:20:19.864Z,102361.19
2023-02-27T14:23:17.417Z,102361.34
2023-02-27T14:26:05.084Z,102364.00
2023-02-27T14:28:36.557Z,102363.13
2023-02-27T14:31:22.616Z,102358.06
2023-02-27T14:33:55.179Z,102361.38
2023-02-27T14:36:30.500Z,102359.75
2023-02-27T14:38:59.324Z,102354.44
2023-02-27T14:41:48.316Z,102363.09
2023-02-27T14:44:27.896Z,102372.59
2023-02-27T14:46:57.544Z,102372.59
2023-02-27T14:49:32.758Z,102377.69
2023-02-27T14:52:25.078Z,102370.63
2023-02-27T14:54:53.685Z,102378.44
2023-02-27T14:57:26.986Z,102380.13
2023-02-27T14:59:55.127Z,102374.97
2023-02-27T15:02:30.650Z,102380.94
2023-02-27T15:05:03.991Z,102377.66
2023-02-27T15:07:32.706Z,102380.94
2023-02-27T15:10:04.210Z,102382.50
2023-02-27T15:12:32.376Z,102385.97
2023-02-27T15:15:01.427Z,102388.69
2023-02-27T15:17:39.208Z,102391.09
2023-02-27T15:20:24.932Z,102391.09
2023-02-27T15:22:54.450Z,102391.09
2023-02-27T15:25:36.606Z,102391.75
2023-02-27T15:28:18.063Z,102394.06
2023-02-27T15:30:51.956Z,102398.72
2023-02-27T15:33:22.522Z,102387.59
2023-02-27T15:35:49.898Z,102394.44
2023-02-27T15:38:28.424Z,102404.13
2023-02-27T15:40:57.489Z,102403.00
2023-02-27T15:43:26.503Z,102396.09
2023-02-27T15:45:55.945Z,102396.34
2023-02-27T15:48:24.769Z,102405.09
2023-02-27T15:50:58.461Z,102400.63
2023-02-27T15:53:27.733Z,102402.25
2023-02-27T15:56:08.683Z,102406.41
2023-02-27T15:58:49.008Z,102403.97
2023-02-27T16:01:28.788Z,102401.44
2023-02-27T16:04:07.582Z,102398.03
2023-02-27T16:06:38.479Z,102401.13
2023-02-27T16:09:19.166Z,102407.13
2023-02-27T16:11:46.529Z,102406.31
2023-02-27T16:14:41.046Z,102414.97
2023-02-27T16:17:25.865Z,102415.03
2023-02-27T16:19:54.470Z,102415.94
2023-02-27T16:22:22.738Z,102420.34
2023-02-27T16:24:50.502Z,102426.41
2023-02-27T16:27:27.912Z,102419.44
2023-02-27T16:29:57.532Z,102421.91
2023-02-27T16:32:46.650Z,102423.78
2023-02-27T16:35:21.035Z,102428.91
2023-02-27T16:37:49.249Z,102432.13
2023-02-27T16:40:22.524Z,102432.06
2023-02-27T16:42:52.872Z,102435.78
2023-02-27T16:45:31.245Z,102437.19
2023-02-27T16:48:00.356Z,102437.13
2023-02-27T16:50:41.448Z,102435.41
2023-02-27T16:53:09.003Z,102434.53
2023-02-27T16:55:40.481Z,102432.00
2023-02-27T16:58:11.475Z,102434.53
2023-02-27T17:00:38.766Z,102431.84
2023-02-27T17:03:09.213Z,102438.81
2023-02-27T17:05:36.694Z,102438.00
2023-02-27T17:08:04.506Z,102437.06
2023-02-27T17:10:32.041Z,102435.13
2023-02-27T17:12:59.266Z,102442.94
2023-02-27T17:15:27.722Z,102442.88
2023-02-27T17:17:55.192Z,102442.00
2023-02-27T17:20:23.121Z,102446.97
2023-02-27T17:22:50.575Z,102440.75
2023-02-27T17:25:18.122Z,102437.16
2023-02-27T17:27:45.341Z,102435.34
2023-02-27T17:30:13.722Z,102434.44
2023-02-27T17:32:41.196Z,102436.13
2023-02-27T17:35:08.961Z,102439.47
2023-02-27T17:37:36.554Z,102445.47
2023-02-27T17:40:05.266Z,102447.19
2023-02-27T17:42:32.979Z,102442.78
2023-02-27T17:45:01.327Z,102440.97
2023-02-27T17:47:28.913Z,102442.72
2023-02-27T17:49:56.192Z,102454.06
2023-02-27T17:52:23.473Z,102452.38
2023-02-27T17:54:51.249Z,102458.41
2023-02-27T17:57:19.983Z,102462.78
2023-02-27T17:59:50.311Z,102462.72
2023-02-27T18:02:17.839Z,102459.97
2023-02-27T18:04:45.187Z,102455.63
2023-02-27T18:07:12.853Z,102457.38
2023-02-27T18:09:40.272Z,102452.09
2023-02-27T18:12:07.616Z,102444.13
2023-02-27T18:14:36.321Z,102446.59
2023-02-27T18:17:03.999Z,102447.34
2023-02-27T18:19:32.548Z,102445.41
2023-02-27T18:22:00.590Z,102451.44
2023-02-27T18:24:27.795Z,102451.38
2023-02-27T18:26:55.086Z,102453.13
2023-02-27T18:29:22.590Z,102458.31
2023-02-27T18:31:53.455Z,102457.34
2023-02-27T18:34:21.476Z,102459.19
2023-02-27T18:36:48.829Z,102456.28
2023-02-27T18:39:16.064Z,102470.16
2023-02-27T18:41:43.810Z,102471.88
2023-02-27T18:44:12.410Z,102467.50
2023-02-27T18:46:40.268Z,102473.59
2023-02-27T18:49:07.739Z,102469.25
2023-02-27T18:51:35.000Z,102467.44
2023-02-27T18:54:04.441Z,102467.34
2023-02-27T18:56:32.942Z,102477.91
2023-02-27T18:59:05.085Z,102475.22
2023-02-27T19:01:34.983Z,102477.03
2023-02-27T19:04:04.805Z,102476.97
2023-02-27T19:06:38.925Z,102473.56
2023-02-27T19:09:08.709Z,102470.09
2023-02-27T19:11:36.865Z,102485.63
2023-02-27T19:14:07.282Z,102483.16
2023-02-27T19:16:35.138Z,102487.59
2023-02-27T19:19:03.710Z,102483.28
2023-02-27T19:21:31.792Z,102485.91
2023-02-27T19:23:59.300Z,102485.88
2023-02-27T19:26:26.908Z,102485.03
2023-02-27T19:28:55.714Z,102489.31
2023-02-27T19:31:24.516Z,102488.56
2023-02-27T19:33:52.119Z,102489.50
2023-02-27T19:36:21.669Z,102489.50
2023-02-27T19:38:49.219Z,102495.59
2023-02-27T19:41:17.532Z,102491.00
2023-02-27T19:43:44.922Z,102497.19
2023-02-27T19:46:18.406Z,102495.41
2023-02-27T19:48:46.431Z,102483.13
2023-02-27T19:51:14.831Z,102498.00
2023-02-27T19:53:51.088Z,102495.75
2023-02-27T19:56:20.977Z,102493.06
2023-02-27T19:58:48.254Z,102500.22
2023-02-27T20:01:26.412Z,102496.66
2023-02-27T20:03:55.791Z,102487.81
2023-02-27T20:06:25.560Z,102485.19
2023-02-27T20:08:53.247Z,102494.63
2023-02-27T20:11:21.749Z,102491.06
2023-02-27T20:13:50.234Z,102490.97
2023-02-27T20:16:19.424Z,102487.34
2023-02-27T20:18:46.756Z,102488.91
2023-02-27T20:21:18.027Z,102490.38
2023-02-27T20:23:46.528Z,102485.09
2023-02-27T20:26:35.036Z,102486.75
2023-02-27T20:29:08.837Z,102488.09
2023-02-27T20:31:38.080Z,102495.59
2023-02-27T20:34:07.018Z,102496.06
2023-02-27T20:36:35.331Z,102493.19
2023-02-27T20:39:03.667Z,102499.66
2023-02-27T20:41:33.168Z,102494.09
2023-02-27T20:44:00.984Z,102491.53
2023-02-27T20:46:29.408Z,102507.09
2023-02-27T20:49:01.483Z,102500.34
2023-02-27T20:51:31.554Z,102502.09
2023-02-27T20:54:00.141Z,102494.50
2023-02-27T20:56:33.541Z,102501.63
2023-02-27T20:59:03.038Z,102499.06
2023-02-27T21:01:30.834Z,102502.50
2023-02-27T21:04:00.629Z,102504.13
2023-02-27T21:06:28.508Z,102509.22
2023-02-27T21:08:56.738Z,102501.34
2023-02-27T21:11:27.979Z,102510.91
2023-02-27T21:13:56.588Z,102504.78
2023-02-27T21:16:25.680Z,102513.34
2023-02-27T21:18:54.027Z,102512.44
2023-02-27T21:21:33.216Z,102504.56
2023-02-27T21:24:03.356Z,102505.34
2023-02-27T21:26:37.848Z,102503.59
2023-02-27T21:29:12.321Z,102507.09
2023-02-27T21:31:41.309Z,102510.53
2023-02-27T21:34:13.540Z,102513.25
2023-02-27T21:36:42.841Z,102510.47
2023-02-27T21:39:17.662Z,102512.34
2023-02-27T21:41:45.649Z,102514.06
2023-02-27T21:44:16.762Z,102511.56
2023-02-27T21:46:44.212Z,102511.63
2023-02-27T21:49:23.285Z,102514.31
2023-02-27T21:51:50.998Z,102506.50
2023-02-27T21:54:19.449Z,102517.81
2023-02-27T21:56:48.425Z,102514.50
2023-02-27T21:59:16.972Z,102514.50
2023-02-27T22:01:47.419Z,102516.31
2023-02-27T22:04:18.986Z,102513.75
2023-02-27T22:06:47.086Z,102508.63
2023-02-27T22:09:14.483Z,102517.31
2023-02-27T22:11:42.498Z,102509.53
2023-02-27T22:14:10.740Z,102506.16
2023-02-27T22:16:38.111Z,102507.97
2023-02-27T22:19:10.643Z,102502.69
2023-02-27T22:21:38.795Z,102508.84
2023-02-27T22:24:07.158Z,102507.13
2023-02-27T22:26:34.523Z,102514.03
2023-02-27T22:29:01.836Z,102506.25
2023-02-27T22:31:32.452Z,102512.28
2023-02-27T22:34:12.105Z,102514.81
2023-02-27T22:36:41.122Z,102512.22
2023-02-27T22:39:08.534Z,102514.00
2023-02-27T22:41:37.725Z,102516.59
2023-02-27T22:44:05.795Z,102515.50
2023-02-27T22:46:38.777Z,102516.41
2023-02-27T22:49:08.676Z,102517.22
2023-02-27T22:51:36.337Z,102520.66
2023-02-27T22:54:05.071Z,102524.00
2023-02-27T22:56:33.136Z,102521.22
2023-02-27T22:59:00.319Z,102528.88
2023-02-27T23:01:32.139Z,102529.66
2023-02-27T23:04:01.610Z,102539.28
2023-02-27T23:06:36.635Z,102535.91
2023-02-27T23:09:05.439Z,102542.75
2023-02-27T23:11:32.655Z,102534.16
2023-02-27T23:13:59.836Z,102537.56
2023-02-27T23:16:27.079Z,102532.34
2023-02-27T23:18:56.784Z,102534.16
2023-02-27T23:21:34.616Z,102541.94
2023-02-27T23:24:06.394Z,102541.94
2023-02-27T23:26:39.900Z,102543.72
2023-02-27T23:29:07.513Z,102548.03
2023-02-27T23:31:35.808Z,102541.84
2023-02-27T23:34:05.796Z,102541.56
2023-02-27T23:36:33.792Z,102543.31
2023-02-27T23:39:02.805Z,102545.59
2023-02-27T23:41:30.448Z,102545.69
2023-02-27T23:44:16.317Z,102557.78
2023-02-27T23:46:43.501Z,102561.47
2023-02-27T23:49:11.163Z,102545.13
2023-02-27T23:51:38.369Z,102560.84
2023-02-27T23:54:05.571Z,102554.66
2023-02-27T23:56:32.833Z,102554.72
2023-02-27T23:59:07.137Z,102558.41
